This is the latest recevied weather packets stored in our database for station/object DC1MAK-13. If no packets are shown the sender has not sent any weather packets the latest 10 day(s).
| Time | Temp. | Humidity | Pressure | Rain* | Wind** | Luminosity | Snow |
|---|---|---|---|---|---|---|---|
| 1777792039 | 13.89° C | 67% | 985.8 hPa | - | - | - | - |
| 1777791739 | 13.33° C | 68% | 985.8 hPa | - | - | - | - |
| 1777791430 | 12.78° C | 71% | 985.9 hPa | - | - | - | - |
| 1777791127 | 12.22° C | 72% | 986 hPa | - | - | - | - |
| 1777790823 | 11.67° C | 74% | 985.9 hPa | - | - | - | - |
| 1777790219 | 11.67° C | 74% | 986 hPa | - | - | - | - |
| 1777789912 | 11.67° C | 73% | 985.9 hPa | - | - | - | - |
| 1777789609 | 11.67° C | 72% | 985.9 hPa | - | - | - | - |
| 1777789305 | 11.11° C | 73% | 985.9 hPa | - | - | - | - |
| 1777788699 | 10.56° C | 77% | 985.9 hPa | - | - | - | - |
| 1777788399 | 9.44° C | 79% | 986 hPa | - | - | - | - |
| 1777788091 | 9.44° C | 81% | 986.1 hPa | - | - | - | - |
| 1777787787 | 8.89° C | 82% | 986.1 hPa | - | - | - | - |
| 1777787484 | 8.89° C | 83% | 986.1 hPa | - | - | - | - |
| 1777786879 | 8.33° C | 84% | 986 hPa | - | - | - | - |
| 1777786573 | 7.78° C | 85% | 986 hPa | - | - | - | - |
| 1777786269 | 7.78° C | 86% | 986.1 hPa | - | - | - | - |
| 1777785966 | 7.22° C | 87% | 986.1 hPa | - | - | - | - |
| 1777785662 | 7.22° C | 87% | 986.1 hPa | - | - | - | - |
| 1777785059 | 6.67° C | 89% | 986 hPa | - | - | - | - |
| 1777784751 | 6.67° C | 90% | 986 hPa | - | - | - | - |
| 1777784448 | 6.67° C | 91% | 986.1 hPa | - | - | - | - |
| 1777784144 | 6.11° C | 92% | 986.1 hPa | - | - | - | - |
| 1777783539 | 6.11° C | 92% | 986 hPa | - | - | - | - |
| 1777783239 | 6.11° C | 92% | 986 hPa | - | - | - | - |
* Rain since midnight (hover to see other rain measurements)
** Current wind speed in m/s (hover to see current wind gust speed)